Time;durP1;ratioP1;P1;durP2;ratioP2;P2;SDS_P1;SDS_P2;PMS_P1;PMS_P2;Temp;Humidity;BMP_temperature;BMP_pressure;BME280_temperature;BME280_humidity;BME280_pressure;Samples;Min_cycle;Max_cycle;Signal;HPM_P1;HPM_P2
2021/12/09 00:01:22;;;;;;;;;8.25;5.75;;;;;6.13;61.19;100054.81;5060635;28;45298;-52
2021/12/09 00:03:50;;;;;;;;;4.00;4.00;;;;;6.13;61.24;100053.97;5060277;28;45459;-51
2021/12/09 00:06:20;;;;;;;;;3.00;3.00;;;;;6.12;61.28;100063.53;5060274;28;45911;-52
2021/12/09 00:08:46;;;;;;;;;7.75;5.25;;;;;6.11;61.29;100066.16;5058612;28;45989;-50
2021/12/09 00:11:11;;;;;;;;;3.00;3.00;;;;;6.06;61.36;100062.72;5060412;28;45413;-53
2021/12/09 00:13:37;;;;;;;;;5.50;4.50;;;;;6.03;61.23;100058.38;5057932;28;45477;-53
2021/12/09 00:16:02;;;;;;;;;4.00;4.00;;;;;6.04;61.35;100062.72;5060486;28;45351;-47
2021/12/09 00:18:28;;;;;;;;;5.50;4.75;;;;;6.02;61.54;100059.25;5060301;28;45273;-54
2021/12/09 00:20:53;;;;;;;;;8.75;4.75;;;;;6.02;61.21;100054.03;5069607;28;45346;-51
2021/12/09 00:23:19;;;;;;;;;5.25;5.25;;;;;6.01;61.32;100050.56;5064568;27;45334;-52
2021/12/09 00:25:45;;;;;;;;;9.25;7.25;;;;;6.00;61.41;100056.66;5060052;28;45414;-52
2021/12/09 00:28:10;;;;;;;;;7.50;5.00;;;;;6.01;61.23;100065.34;5060097;28;45325;-53
2021/12/09 00:30:36;;;;;;;;;4.50;3.75;;;;;6.02;61.34;100069.69;5060350;28;45363;-53
2021/12/09 00:33:05;;;;;;;;;5.50;3.50;;;;;5.99;61.29;100065.34;5060154;28;45382;-50
2021/12/09 00:35:41;;;;;;;;;3.75;3.25;;;;;5.98;61.44;100066.22;5060016;28;45243;-51
2021/12/09 00:38:09;;;;;;;;;5.25;3.25;;;;;5.96;61.36;100064.47;5059960;28;45572;-53
2021/12/09 00:40:35;;;;;;;;;2.50;2.50;;;;;5.93;60.90;100061.88;5058693;28;45362;-52
2021/12/09 00:43:01;;;;;;;;;4.00;3.00;;;;;5.93;61.23;100064.50;5059679;28;45509;-51
2021/12/09 00:45:26;;;;;;;;;3.50;3.25;;;;;5.89;61.41;100057.53;5059870;28;45410;-52
2021/12/09 00:47:52;;;;;;;;;2.25;2.25;;;;;5.86;61.22;100058.44;5058502;28;45217;-51
2021/12/09 00:50:19;;;;;;;;;4.50;4.00;;;;;5.88;61.44;100055.84;5060027;28;45252;-52
2021/12/09 00:52:46;;;;;;;;;6.25;3.00;;;;;5.85;61.45;100060.19;5059675;28;45330;-48
2021/12/09 00:55:12;;;;;;;;;5.25;3.00;;;;;5.86;61.35;100067.13;5059714;28;45220;-50
2021/12/09 00:57:39;;;;;;;;;4.75;1.00;;;;;5.86;61.39;100081.91;5059420;28;45393;-51
2021/12/09 01:00:14;;;;;;;;;3.00;3.00;;;;;5.84;61.44;100076.69;5059902;28;45359;-52
2021/12/09 01:02:40;;;;;;;;;3.75;3.75;;;;;5.84;61.27;100074.09;5059367;28;45316;-52
2021/12/09 01:05:06;;;;;;;;;5.00;4.00;;;;;5.83;61.15;100080.19;5059399;28;45333;-48
2021/12/09 01:07:34;;;;;;;;;7.50;3.00;;;;;5.80;61.13;100077.59;5059798;28;45347;-52
2021/12/09 01:09:59;;;;;;;;;4.00;3.25;;;;;5.82;61.37;100085.41;5059384;28;45279;-50
2021/12/09 01:12:25;;;;;;;;;7.00;3.00;;;;;5.73;61.46;100073.28;5059271;28;45323;-49
2021/12/09 01:14:51;;;;;;;;;4.00;2.75;;;;;5.79;61.34;100086.28;5059497;28;45229;-52
2021/12/09 01:17:17;;;;;;;;;4.25;4.25;;;;;5.78;61.42;100081.09;5059560;28;45275;-52
2021/12/09 01:19:42;;;;;;;;;3.25;2.25;;;;;5.78;61.34;100078.47;5059521;28;45501;-51
2021/12/09 01:22:09;;;;;;;;;2.00;2.00;;;;;5.74;61.45;100072.41;5059603;28;45311;-53
2021/12/09 01:24:34;;;;;;;;;6.75;2.25;;;;;5.74;61.50;100079.38;5072593;28;45322;-52
2021/12/09 01:27:00;;;;;;;;;4.75;4.00;;;;;5.74;61.31;100084.59;5059219;27;45338;-51
2021/12/09 01:29:38;;;;;;;;;2.75;2.75;;;;;5.73;61.38;100088.94;5059705;28;45361;-51
2021/12/09 01:32:07;;;;;;;;;4.00;2.75;;;;;5.74;61.40;100090.66;5046452;28;45793;-51
2021/12/09 01:34:34;;;;;;;;;4.00;2.50;;;;;5.74;61.50;100095.88;5059129;28;45366;-53
2021/12/09 01:37:00;;;;;;;;;2.00;2.00;;;;;5.74;61.35;100095.88;5059324;28;45275;-52
2021/12/09 01:39:28;;;;;;;;;2.00;1.75;;;;;5.75;61.55;100102.84;5059134;28;45451;-49
2021/12/09 01:41:55;;;;;;;;;2.00;2.00;;;;;5.77;61.42;100098.47;5058956;28;45394;-49
2021/12/09 01:44:21;;;;;;;;;3.00;2.00;;;;;5.78;61.32;100105.41;5058979;28;45286;-50
2021/12/09 01:46:46;;;;;;;;;4.00;2.75;;;;;5.75;61.30;100104.56;5059050;28;45363;-49
2021/12/09 01:49:12;;;;;;;;;2.00;2.00;;;;;5.76;61.31;100109.78;5059259;28;45275;-49
2021/12/09 01:51:37;;;;;;;;;3.00;3.00;;;;;5.77;61.43;100116.72;5059096;28;45271;-50
2021/12/09 01:54:03;;;;;;;;;3.00;3.00;;;;;5.78;61.10;100118.44;5058868;28;46006;-52
2021/12/09 01:56:29;;;;;;;;;5.25;3.00;;;;;5.75;61.50;100105.44;5058911;28;45317;-50
2021/12/09 01:59:03;;;;;;;;;2.00;2.00;;;;;5.78;61.46;100108.03;5059314;28;45268;-50
2021/12/09 02:01:30;;;;;;;;;2.25;2.25;;;;;5.78;61.33;100113.22;5061290;28;45729;-53
2021/12/09 02:03:56;;;;;;;;;4.50;3.25;;;;;5.79;61.38;100116.72;5062115;28;46106;-52
2021/12/09 02:06:22;;;;;;;;;2.00;2.00;;;;;5.78;61.51;100128.03;5062169;28;45366;-49
2021/12/09 02:08:48;;;;;;;;;4.25;2.50;;;;;5.78;61.44;100123.66;5062225;28;45414;-50
2021/12/09 02:11:15;;;;;;;;;2.75;2.75;;;;;5.77;61.47;100124.53;5062108;28;45528;-52
2021/12/09 02:13:41;;;;;;;;;3.00;3.00;;;;;5.76;61.31;100130.66;5061944;28;45409;-52
2021/12/09 02:16:08;;;;;;;;;3.00;3.00;;;;;5.76;61.43;100128.03;5062274;28;45427;-50
2021/12/09 02:18:34;;;;;;;;;4.00;4.00;;;;;5.77;61.54;100132.34;5062218;28;45334;-52
2021/12/09 02:21:13;;;;;;;;;3.50;3.50;;;;;5.78;61.47;100130.63;5060596;28;45477;-49
2021/12/09 02:23:44;;;;;;;;;4.00;4.00;;;;;5.78;61.39;100125.41;5075573;28;45399;-52
2021/12/09 02:26:10;;;;;;;;;5.00;3.50;;;;;5.78;61.57;100128.03;5074731;28;45412;-60
2021/12/09 02:28:36;;;;;;;;;6.25;2.50;;;;;5.79;61.62;100120.19;5062210;27;45356;-55
2021/12/09 02:31:02;;;;;;;;;6.50;3.75;;;;;5.77;61.46;100114.09;5073865;28;45263;-51
2021/12/09 02:33:28;;;;;;;;;4.50;2.75;;;;;5.78;61.67;100120.19;5062029;27;46322;-49
2021/12/09 02:35:53;;;;;;;;;3.00;2.75;;;;;5.78;61.53;100130.63;5062004;28;45344;-50
2021/12/09 02:38:19;;;;;;;;;2.00;2.00;;;;;5.78;61.44;100128.88;5062016;28;45181;-52
2021/12/09 02:40:47;;;;;;;;;7.00;3.00;;;;;5.79;61.49;100137.59;5061796;28;45304;-52
2021/12/09 02:43:13;;;;;;;;;3.00;2.00;;;;;5.80;61.51;100136.72;5048533;28;47015;-50
2021/12/09 02:45:40;;;;;;;;;2.25;2.25;;;;;5.75;61.49;100123.69;5060428;28;45353;-50
2021/12/09 02:48:05;;;;;;;;;3.75;2.75;;;;;5.78;61.56;100131.50;5061848;28;45319;-50
2021/12/09 02:50:31;;;;;;;;;3.25;3.00;;;;;5.79;61.54;100125.41;5061391;28;45383;-49
2021/12/09 02:52:56;;;;;;;;;3.75;3.00;;;;;5.78;61.71;100122.81;5061966;28;45334;-50
2021/12/09 02:55:22;;;;;;;;;6.00;3.50;;;;;5.79;61.92;100129.75;5061539;28;45311;-51
2021/12/09 02:57:51;;;;;;;;;4.00;2.75;;;;;5.79;61.58;100125.41;5061913;28;45351;-50
2021/12/09 03:00:17;;;;;;;;;2.00;2.00;;;;;5.78;61.68;100128.03;5060282;28;45498;-50
2021/12/09 03:02:43;;;;;;;;;3.00;2.00;;;;;5.79;61.42;100130.63;5061231;28;45368;-52
2021/12/09 03:05:09;;;;;;;;;3.75;2.75;;;;;5.79;61.75;100124.56;5061291;28;45276;-52
2021/12/09 03:07:38;;;;;;;;;2.25;1.75;;;;;5.76;61.41;100122.81;5061554;28;45367;-51
2021/12/09 03:10:10;;;;;;;;;3.75;2.00;;;;;5.80;61.67;100121.94;5059789;28;45594;-53
2021/12/09 03:12:41;;;;;;;;;2.50;2.50;;;;;5.81;61.37;100139.31;5058835;28;48149;-53
2021/12/09 03:15:08;;;;;;;;;2.75;2.75;;;;;5.82;61.47;100137.56;5061065;28;45208;-49
2021/12/09 03:17:35;;;;;;;;;3.00;3.00;;;;;5.80;61.63;100140.19;5061400;28;45315;-51
2021/12/09 03:20:00;;;;;;;;;3.25;3.25;;;;;5.81;61.61;100141.91;5060870;28;45526;-50
2021/12/09 03:22:26;;;;;;;;;3.75;3.00;;;;;5.81;61.78;100134.09;5061085;28;46114;-50
2021/12/09 03:24:52;;;;;;;;;5.00;2.25;;;;;5.81;61.75;100141.03;5060920;28;45249;-51
2021/12/09 03:27:18;;;;;;;;;2.25;2.00;;;;;5.80;61.74;100142.78;5061217;28;45308;-49
2021/12/09 03:29:45;;;;;;;;;2.00;1.50;;;;;5.79;61.62;100141.06;5060979;28;45190;-51
2021/12/09 03:32:13;;;;;;;;;1.00;1.00;;;;;5.77;61.68;100137.56;5059763;28;47064;-48
2021/12/09 03:34:41;;;;;;;;;1.00;1.00;;;;;5.75;61.72;100130.63;5060826;28;45440;-51
2021/12/09 03:37:10;;;;;;;;;4.00;1.00;;;;;5.74;61.73;100145.41;5059745;28;45343;-49
2021/12/09 03:39:39;;;;;;;;;2.00;1.50;;;;;5.68;61.53;100137.63;5060702;28;45472;-50
2021/12/09 03:42:10;;;;;;;;;6.00;2.00;;;;;5.66;61.74;100148.06;5060557;28;46405;-50
2021/12/09 03:44:36;;;;;;;;;3.50;2.50;;;;;5.63;61.51;100144.59;5060577;28;45343;-50
2021/12/09 03:47:05;;;;;;;;;3.00;3.00;;;;;5.61;61.90;100151.53;5060903;28;45505;-50
2021/12/09 03:49:31;;;;;;;;;1.50;1.50;;;;;5.56;61.75;100155.91;5060599;28;45557;-52
2021/12/09 03:51:57;;;;;;;;;2.00;2.00;;;;;5.56;61.81;100154.19;5072505;28;45545;-50
2021/12/09 03:54:24;;;;;;;;;4.00;2.75;;;;;5.53;61.67;100152.44;5076395;27;45400;-53
2021/12/09 03:56:49;;;;;;;;;3.00;2.50;;;;;5.54;61.73;100161.13;5060555;28;45422;-53
2021/12/09 03:59:15;;;;;;;;;3.00;2.00;;;;;5.50;62.06;100162.88;5060704;28;45463;-51
2021/12/09 04:01:42;;;;;;;;;2.00;1.50;;;;;5.49;62.11;100166.34;5059282;28;45952;-52
2021/12/09 04:04:08;;;;;;;;;1.75;1.50;;;;;5.47;62.08;100169.81;5060701;28;45612;-51
2021/12/09 04:06:34;;;;;;;;;2.25;2.25;;;;;5.47;61.95;100172.44;5060460;28;45446;-52
2021/12/09 04:09:00;;;;;;;;;1.00;1.00;;;;;5.41;61.88;100156.81;5060597;28;45257;-48
2021/12/09 04:11:26;;;;;;;;;5.25;2.00;;;;;5.48;61.75;100176.78;5060132;28;47169;-51
2021/12/09 04:13:52;;;;;;;;;4.00;2.00;;;;;5.48;62.03;100182.84;5060162;28;45231;-51
2021/12/09 04:16:18;;;;;;;;;3.75;1.75;;;;;5.48;61.81;100182.00;5059437;28;45252;-53
2021/12/09 04:18:44;;;;;;;;;2.25;2.25;;;;;5.49;61.80;100191.56;5060297;28;45169;-53
2021/12/09 04:21:10;;;;;;;;;3.00;3.00;;;;;5.39;61.92;100166.38;5060018;28;46064;-52
2021/12/09 04:23:36;;;;;;;;;6.00;3.00;;;;;5.48;61.94;100182.00;5059859;28;45239;-52
2021/12/09 04:26:02;;;;;;;;;4.00;2.00;;;;;5.48;62.05;100189.81;5058915;28;45644;-52
2021/12/09 04:28:28;;;;;;;;;3.00;3.00;;;;;5.49;62.00;100178.53;5060031;28;45503;-48
2021/12/09 04:30:54;;;;;;;;;3.50;2.00;;;;;5.44;62.05;100175.91;5060256;28;45357;-53
2021/12/09 04:33:19;;;;;;;;;1.50;1.50;;;;;5.45;61.98;100175.06;5072294;28;45309;-57
2021/12/09 04:35:45;;;;;;;;;4.00;2.25;;;;;5.48;62.08;100179.38;5059220;28;45415;-49
2021/12/09 04:38:10;;;;;;;;;3.00;2.00;;;;;5.48;62.06;100184.59;5060088;28;45524;-51
2021/12/09 04:40:36;;;;;;;;;5.75;3.00;;;;;5.46;62.03;100178.50;5058503;28;46945;-52
2021/12/09 04:43:02;;;;;;;;;4.00;3.50;;;;;5.48;62.25;100195.03;5073333;28;45276;-49
2021/12/09 04:45:30;;;;;;;;;3.00;2.75;;;;;5.45;62.29;100193.28;5060138;28;45309;-49
2021/12/09 04:47:56;;;;;;;;;7.00;4.00;;;;;5.48;62.07;100198.47;5059857;28;45559;-51
2021/12/09 04:50:22;;;;;;;;;6.50;3.75;;;;;5.49;61.84;100189.78;5059743;28;45287;-51
2021/12/09 04:52:48;;;;;;;;;2.50;2.25;;;;;5.49;62.11;100192.41;5059976;28;45315;-50
2021/12/09 04:55:13;;;;;;;;;4.00;1.50;;;;;5.47;62.24;100186.34;5058568;28;45337;-53
2021/12/09 04:57:39;;;;;;;;;2.00;2.00;;;;;5.48;62.35;100185.44;5059697;28;45541;-50
2021/12/09 05:00:09;;;;;;;;;2.00;2.00;;;;;5.47;62.18;100188.94;5059779;28;45310;-51
2021/12/09 05:05:42;;;;;;;;;4.50;4.50;;;;;5.46;62.09;100192.44;4997779;28;45325;-50
2021/12/09 05:08:12;;;;;;;;;6.50;4.00;;;;;5.45;62.28;100188.06;4997830;28;45573;-53
2021/12/09 05:13:30;;;;;;;;;5.50;5.50;;;;;5.47;62.37;100202.00;5050470;28;45241;-51
2021/12/09 05:15:56;;;;;;;;;7.75;6.00;;;;;5.49;62.38;100200.22;5059718;28;45311;-51
2021/12/09 05:18:24;;;;;;;;;7.00;3.75;;;;;5.50;62.34;100199.34;5059597;28;45319;-50
2021/12/09 05:20:50;;;;;;;;;11.00;6.50;;;;;5.52;62.28;100202.84;5057841;28;47317;-51
2021/12/09 05:23:20;;;;;;;;;3.50;3.50;;;;;5.54;62.33;100208.91;5059618;28;45223;-51
2021/12/09 05:25:45;;;;;;;;;7.00;4.50;;;;;5.55;62.62;100207.19;5059680;28;45326;-50
2021/12/09 05:28:15;;;;;;;;;5.50;5.50;;;;;5.57;62.44;100202.81;5059142;28;45317;-49
2021/12/09 05:33:27;;;;;;;;;4.00;4.00;;;;;5.59;62.32;100195.00;5059312;28;45428;-49
2021/12/09 05:35:53;;;;;;;;;6.00;4.00;;;;;5.58;62.43;100201.09;5061307;28;45336;-53
2021/12/09 05:38:19;;;;;;;;;6.00;3.00;;;;;5.54;62.29;100188.03;5062977;28;45315;-52
2021/12/09 05:40:44;;;;;;;;;4.00;4.00;;;;;5.56;62.39;100200.22;5062466;28;45877;-52
2021/12/09 05:43:09;;;;;;;;;4.25;4.25;;;;;5.57;62.49;100209.78;5062794;28;45446;-49
2021/12/09 05:45:35;;;;;;;;;7.25;6.00;;;;;5.59;62.42;100215.88;5062809;28;45315;-48
2021/12/09 05:48:00;;;;;;;;;8.50;7.25;;;;;5.60;62.54;100213.25;5054104;28;45773;-52
2021/12/09 05:50:25;;;;;;;;;7.25;5.25;;;;;5.59;62.50;100211.50;5056359;28;45346;-49
2021/12/09 05:52:51;;;;;;;;;7.00;6.00;;;;;5.56;62.58;100208.91;5062831;28;45317;-53
2021/12/09 05:55:16;;;;;;;;;5.75;4.00;;;;;5.57;62.54;100209.78;5062626;28;45439;-49
2021/12/09 05:57:41;;;;;;;;;6.25;4.50;;;;;5.58;62.54;100214.97;5062557;28;45238;-51
2021/12/09 06:00:08;;;;;;;;;7.25;4.50;;;;;5.57;62.71;100209.78;5062433;28;45331;-49
2021/12/09 06:02:35;;;;;;;;;8.00;4.50;;;;;5.55;62.60;100209.78;5069864;28;45501;-51
2021/12/09 06:05:01;;;;;;;;;6.00;4.00;;;;;5.54;62.41;100229.75;5068082;27;45350;-51
2021/12/09 06:07:27;;;;;;;;;14.50;13.25;;;;;5.58;62.48;100219.34;5073806;28;45273;-51
2021/12/09 06:09:52;;;;;;;;;4.50;4.00;;;;;5.59;62.47;100218.47;5060742;28;45932;-47
2021/12/09 06:12:19;;;;;;;;;6.00;6.00;;;;;5.59;62.53;100219.31;5061789;28;45344;-53
2021/12/09 06:14:45;;;;;;;;;6.50;3.75;;;;;5.61;62.39;100225.41;5062394;28;45268;-51
2021/12/09 06:17:10;;;;;;;;;6.25;6.00;;;;;5.60;62.55;100226.28;5061490;28;45473;-52
2021/12/09 06:19:35;;;;;;;;;8.75;6.75;;;;;5.64;62.63;100240.19;5061792;28;45324;-53
2021/12/09 06:22:01;;;;;;;;;7.75;6.25;;;;;5.65;62.39;100234.97;5062108;28;45314;-52
2021/12/09 06:24:26;;;;;;;;;6.00;6.00;;;;;5.66;62.47;100223.66;5074394;28;45293;-51
2021/12/09 06:26:52;;;;;;;;;8.00;7.00;;;;;5.66;62.36;100235.81;5063033;27;45426;-52
2021/12/09 06:29:17;;;;;;;;;7.00;7.00;;;;;5.63;62.54;100226.25;5060906;28;45756;-49
2021/12/09 06:31:43;;;;;;;;;6.75;6.75;;;;;5.64;62.40;100234.97;5061973;28;45299;-51
2021/12/09 06:34:11;;;;;;;;;7.25;5.50;;;;;5.67;62.67;100234.94;5060615;28;45166;-48
2021/12/09 06:36:37;;;;;;;;;11.50;6.75;;;;;5.63;62.72;100233.22;5061768;28;45403;-51
2021/12/09 06:39:05;;;;;;;;;8.50;7.75;;;;;5.64;62.58;100234.97;5061699;28;45471;-48
2021/12/09 06:41:31;;;;;;;;;7.25;6.50;;;;;5.67;62.50;100242.75;5061513;28;45363;-47
2021/12/09 06:43:56;;;;;;;;;12.00;6.00;;;;;5.67;62.43;100240.16;5061843;28;45314;-49
2021/12/09 06:46:21;;;;;;;;;7.00;6.50;;;;;5.68;62.66;100241.91;5060209;28;45542;-49
2021/12/09 06:48:47;;;;;;;;;3.75;3.75;;;;;5.67;62.51;100242.75;5060361;28;47212;-49
2021/12/09 06:51:12;;;;;;;;;8.25;7.00;;;;;5.67;62.50;100246.25;5061509;28;45327;-53
2021/12/09 06:53:37;;;;;;;;;12.00;9.00;;;;;5.65;62.56;100241.94;5061783;28;45232;-52
2021/12/09 06:56:04;;;;;;;;;9.25;8.25;;;;;5.67;62.43;100254.09;5061395;28;45410;-50
2021/12/09 06:58:29;;;;;;;;;7.75;7.75;;;;;5.66;62.25;100241.03;5061687;28;45244;-50
2021/12/09 07:00:56;;;;;;;;;9.75;9.00;;;;;5.66;62.56;100254.94;5061376;28;45241;-49
2021/12/09 07:03:23;;;;;;;;;8.50;7.25;;;;;5.65;62.48;100254.97;5061546;28;45318;-49
2021/12/09 07:05:50;;;;;;;;;11.25;8.75;;;;;5.66;62.48;100260.16;5061426;28;45488;-50
2021/12/09 07:08:16;;;;;;;;;8.00;8.00;;;;;5.66;62.60;100254.06;5061196;28;47007;-49
2021/12/09 07:10:42;;;;;;;;;11.50;10.50;;;;;5.62;62.33;100253.22;5061100;28;45401;-49
2021/12/09 07:13:08;;;;;;;;;7.00;7.00;;;;;5.64;62.40;100266.25;5051514;28;45705;-47
2021/12/09 07:15:34;;;;;;;;;9.00;7.50;;;;;5.64;62.43;100264.50;5061112;28;45391;-47
2021/12/09 07:17:59;;;;;;;;;14.25;10.00;;;;;5.63;62.27;100269.72;5060952;28;46125;-50
2021/12/09 07:20:27;;;;;;;;;9.75;7.00;;;;;5.64;62.58;100267.09;5060777;28;45319;-51
2021/12/09 07:22:53;;;;;;;;;10.25;7.25;;;;;5.64;62.28;100271.47;5061392;28;45430;-49
2021/12/09 07:25:20;;;;;;;;;10.75;8.25;;;;;5.62;62.51;100266.25;5060937;28;45323;-51
2021/12/09 07:27:46;;;;;;;;;14.00;9.50;;;;;5.63;62.41;100272.34;5060929;28;46384;-51
2021/12/09 07:30:13;;;;;;;;;12.25;8.00;;;;;5.61;62.40;100258.41;5047728;28;45388;-46
2021/12/09 07:32:39;;;;;;;;;9.50;9.50;;;;;5.61;62.75;100269.72;5059678;28;45301;-51
2021/12/09 07:35:06;;;;;;;;;9.25;7.50;;;;;5.61;62.60;100263.63;5060858;28;45553;-52
2021/12/09 07:37:32;;;;;;;;;11.25;9.50;;;;;5.61;62.48;100264.53;5060785;28;46526;-49
2021/12/09 07:39:58;;;;;;;;;15.00;12.50;;;;;5.62;62.49;100261.06;5060787;28;45363;-52
2021/12/09 07:42:24;;;;;;;;;12.75;11.50;;;;;5.60;62.44;100264.53;5060844;28;45744;-48
2021/12/09 07:44:50;;;;;;;;;8.00;8.00;;;;;5.61;62.55;100268.84;5060413;28;45391;-52
2021/12/09 07:47:17;;;;;;;;;8.00;7.75;;;;;5.56;62.57;100252.34;5060658;28;46793;-50
2021/12/09 07:49:44;;;;;;;;;10.50;9.00;;;;;5.58;62.43;100272.31;5059685;28;45208;-52
2021/12/09 07:52:09;;;;;;;;;8.50;7.75;;;;;5.55;62.40;100272.34;5060706;28;45180;-49
2021/12/09 07:54:35;;;;;;;;;10.25;9.50;;;;;5.54;62.40;100265.38;5060725;28;45400;-53
2021/12/09 07:57:01;;;;;;;;;13.00;10.75;;;;;5.51;62.78;100258.44;5059949;28;46840;-53
2021/12/09 07:59:27;;;;;;;;;13.25;12.00;;;;;5.52;62.37;100267.13;5042753;28;45233;-53
2021/12/09 08:01:52;;;;;;;;;9.75;8.00;;;;;5.49;62.41;100272.34;5059546;28;45225;-49
2021/12/09 08:04:17;;;;;;;;;11.50;9.00;;;;;5.47;62.43;100263.66;5060592;28;45410;-52
2021/12/09 08:06:43;;;;;;;;;14.00;10.25;;;;;5.47;62.48;100264.53;5060399;28;45531;-49
2021/12/09 08:09:09;;;;;;;;;13.25;11.75;;;;;5.45;62.46;100275.84;5060661;28;45314;-53
2021/12/09 08:11:37;;;;;;;;;14.75;11.75;;;;;5.44;62.45;100279.31;5060410;28;45330;-51
2021/12/09 08:14:07;;;;;;;;;13.00;10.75;;;;;5.42;62.50;100268.00;5060193;28;45332;-52
2021/12/09 08:16:37;;;;;;;;;17.75;13.00;;;;;5.42;62.48;100278.44;5060132;28;46249;-52
2021/12/09 08:19:04;;;;;;;;;16.50;13.25;;;;;5.39;62.51;100271.47;5060126;28;45221;-48
2021/12/09 08:21:33;;;;;;;;;15.00;12.25;;;;;5.39;62.48;100276.69;5059024;28;45367;-49
2021/12/09 08:23:59;;;;;;;;;14.25;10.75;;;;;5.39;62.35;100270.63;5060256;28;45423;-50
2021/12/09 08:26:25;;;;;;;;;10.50;10.50;;;;;5.39;62.64;100276.69;5058345;28;47735;-49
2021/12/09 08:28:50;;;;;;;;;13.75;12.50;;;;;5.40;62.50;100277.56;5059001;28;45419;-49
2021/12/09 08:31:16;;;;;;;;;13.00;10.75;;;;;5.40;62.49;100277.56;5060338;28;45221;-51
2021/12/09 08:33:41;;;;;;;;;14.25;13.00;;;;;5.40;62.50;100277.56;5060405;28;45303;-49
2021/12/09 08:36:07;;;;;;;;;16.50;15.00;;;;;5.43;62.33;100272.34;5060073;28;46345;-50
2021/12/09 08:38:35;;;;;;;;;14.50;13.50;;;;;5.41;62.74;100269.75;5060075;28;45340;-51
2021/12/09 08:41:02;;;;;;;;;22.50;13.50;;;;;5.43;62.46;100273.22;5059797;28;45391;-49
2021/12/09 08:43:27;;;;;;;;;13.25;12.00;;;;;5.44;62.43;100269.72;5060054;28;45416;-52
2021/12/09 08:45:53;;;;;;;;;17.75;14.25;;;;;5.44;62.65;100274.94;5059586;28;46196;-49
2021/12/09 08:48:19;;;;;;;;;19.00;13.75;;;;;5.49;62.74;100275.81;5060312;28;45285;-50
2021/12/09 08:50:45;;;;;;;;;15.25;14.25;;;;;5.50;62.51;100271.47;5059999;28;45762;-52
2021/12/09 08:53:22;;;;;;;;;18.00;16.75;;;;;5.53;62.44;100277.56;5059977;28;45251;-49
2021/12/09 08:55:48;;;;;;;;;14.50;13.00;;;;;5.58;62.45;100287.13;5059476;28;45334;-51
2021/12/09 08:58:14;;;;;;;;;15.00;13.75;;;;;5.59;62.47;100288.84;5058527;28;45253;-52
2021/12/09 09:00:42;;;;;;;;;19.50;15.50;;;;;5.63;62.72;100293.19;5059893;28;45224;-52
2021/12/09 09:03:08;;;;;;;;;15.25;13.25;;;;;5.68;62.46;100300.13;5059685;28;45161;-52
2021/12/09 09:05:35;;;;;;;;;16.25;15.00;;;;;5.73;62.77;100301.88;5059521;28;45434;-53
2021/12/09 09:08:02;;;;;;;;;18.75;15.50;;;;;5.78;62.74;100300.13;5058543;28;45711;-52
2021/12/09 09:10:29;;;;;;;;;15.00;12.75;;;;;5.82;62.76;100309.66;5062105;28;45350;-51
2021/12/09 09:12:55;;;;;;;;;15.50;11.50;;;;;5.85;62.82;100307.06;5054696;28;45190;-51
2021/12/09 09:15:24;;;;;;;;;21.00;14.75;;;;;5.89;62.80;100313.13;5058923;28;45280;-51
2021/12/09 09:17:51;;;;;;;;;15.25;13.75;;;;;5.96;62.83;100309.63;5063111;28;45316;-48
2021/12/09 09:20:21;;;;;;;;;5.25;4.00;;;;;5.99;62.72;100310.53;5063477;28;45315;-50
2021/12/09 09:22:47;;;;;;;;;17.75;16.50;;;;;6.05;62.67;100312.28;5061640;28;45561;-52
2021/12/09 09:25:17;;;;;;;;;17.50;15.50;;;;;6.10;62.64;100318.34;5061654;28;47265;-51
2021/12/09 09:27:47;;;;;;;;;15.50;11.00;;;;;6.14;62.78;100320.06;5061338;28;45324;-52
2021/12/09 09:30:17;;;;;;;;;14.25;13.25;;;;;6.11;62.88;100314.88;5063095;28;45259;-52
2021/12/09 09:32:47;;;;;;;;;13.75;13.75;;;;;6.24;62.68;100326.16;5062816;28;46133;-50
2021/12/09 09:35:14;;;;;;;;;12.25;12.25;;;;;6.28;62.80;100325.25;5062805;28;47118;-50
2021/12/09 09:37:39;;;;;;;;;15.75;10.50;;;;;6.37;62.86;100326.09;5062941;28;45256;-50
2021/12/09 09:40:08;;;;;;;;;13.50;11.25;;;;;6.36;62.97;100322.63;5062948;28;45492;-52
2021/12/09 09:45:05;;;;;;;;;9.00;9.00;;;;;6.47;63.10;100328.66;5062681;28;45395;-48
2021/12/09 09:47:31;;;;;;;;;9.25;7.25;;;;;6.55;63.05;100340.81;5061298;28;45359;-49
2021/12/09 09:49:57;;;;;;;;;10.25;8.75;;;;;6.59;62.99;100338.19;5061596;28;45448;-51
2021/12/09 09:52:23;;;;;;;;;10.25;9.75;;;;;6.65;63.05;100329.47;5062544;28;45201;-51
2021/12/09 09:54:50;;;;;;;;;9.75;8.25;;;;;6.71;62.98;100352.94;5062383;28;45282;-48
2021/12/09 09:57:16;;;;;;;;;9.75;9.00;;;;;6.75;63.00;100338.97;5061100;28;45277;-49
2021/12/09 09:59:42;;;;;;;;;11.50;11.00;;;;;6.82;62.99;100343.31;5078232;28;45348;-47
2021/12/09 10:02:10;;;;;;;;;8.50;8.00;;;;;6.89;62.97;100356.34;5062582;28;45360;-49
2021/12/09 10:04:48;;;;;;;;;15.75;13.75;;;;;6.92;62.73;100345.88;5061170;28;45423;-48
2021/12/09 10:07:17;;;;;;;;;11.25;7.50;;;;;6.99;62.80;100343.22;5061291;28;45306;-51
2021/12/09 10:09:43;;;;;;;;;13.50;10.25;;;;;7.08;62.91;100349.25;5061217;28;45512;-48
2021/12/09 10:12:09;;;;;;;;;10.75;10.50;;;;;7.14;63.00;100342.28;5061143;28;45342;-49
2021/12/09 10:14:36;;;;;;;;;15.75;15.25;;;;;7.25;62.99;100346.56;5059637;28;45605;-53
2021/12/09 10:17:12;;;;;;;;;12.00;10.75;;;;;7.32;62.87;100341.25;5059817;28;45327;-49
2021/12/09 10:19:40;;;;;;;;;9.25;9.25;;;;;7.44;63.09;100345.53;5058602;28;45304;-49
2021/12/09 10:22:16;;;;;;;;;8.75;8.00;;;;;7.52;62.86;100332.41;5061024;28;45379;-51
2021/12/09 10:24:43;;;;;;;;;10.50;10.00;;;;;7.63;63.08;100333.19;5060788;28;46972;-48
2021/12/09 10:27:21;;;;;;;;;10.00;10.00;;;;;7.75;63.11;100331.34;5059404;28;45459;-50
2021/12/09 10:29:47;;;;;;;;;11.00;9.50;;;;;7.86;62.90;100323.38;5059449;28;45416;-51
2021/12/09 10:32:24;;;;;;;;;12.50;10.00;;;;;7.98;63.10;100326.72;5060928;28;45268;-50
2021/12/09 10:34:49;;;;;;;;;9.50;9.50;;;;;8.08;62.96;100317.03;5060755;28;46315;-50
2021/12/09 10:37:20;;;;;;;;;11.00;10.25;;;;;8.21;62.83;100319.53;5060495;28;45264;-48
2021/12/09 10:39:51;;;;;;;;;12.00;10.75;;;;;8.33;62.95;100311.53;5060736;28;45330;-50
2021/12/09 10:42:43;;;;;;;;;8.75;7.75;;;;;8.44;63.08;100304.44;5058988;28;45556;-52
2021/12/09 10:45:13;;;;;;;;;9.50;9.50;;;;;8.58;62.87;100298.19;5060562;28;45278;-49
2021/12/09 10:50:45;;;;;;;;;6.00;4.50;;;;;8.81;62.94;100297.88;5060776;28;45338;-51
2021/12/09 10:56:10;;;;;;;;;7.50;6.00;;;;;9.04;63.05;100296.66;5058765;28;45279;-52
2021/12/09 10:58:45;;;;;;;;;23.00;19.50;;;;;9.09;62.70;100308.84;5060436;28;45304;-51
2021/12/09 11:01:16;;;;;;;;;10.50;9.50;;;;;9.17;62.86;100284.22;5060653;28;45406;-52
2021/12/09 11:03:49;;;;;;;;;11.00;9.00;;;;;9.24;62.65;100278.00;5019756;28;1161323;-53
2021/12/09 11:06:21;;;;;;;;;10.50;10.25;;;;;9.37;62.88;100287.41;5061449;28;46162;-51
2021/12/09 11:08:52;;;;;;;;;8.25;6.50;;;;;9.45;62.69;100274.16;5059892;28;45232;-50
2021/12/09 11:11:26;;;;;;;;;11.00;8.75;;;;;9.54;62.43;100286.25;5061216;28;45302;-52
2021/12/09 11:13:56;;;;;;;;;8.00;5.50;;;;;9.61;62.67;100280.03;5061246;28;45339;-53
2021/12/09 11:16:31;;;;;;;;;6.00;6.00;;;;;9.67;62.37;100272.06;5061100;28;47055;-50
2021/12/09 11:19:34;;;;;;;;;6.50;5.00;;;;;9.76;62.31;100274.50;5061542;28;45357;-51
2021/12/09 11:22:06;;;;;;;;;9.50;6.25;;;;;9.82;62.41;100267.41;5061430;28;45280;-53
2021/12/09 11:24:37;;;;;;;;;6.00;6.00;;;;;9.89;62.15;100269.03;5061198;28;45406;-51
2021/12/09 11:27:11;;;;;;;;;8.50;6.75;;;;;9.93;62.26;100255.78;5060820;28;47289;-51
2021/12/09 11:29:45;;;;;;;;;6.50;6.50;;;;;9.98;62.11;100257.50;5061191;28;45283;-52
2021/12/09 11:35:04;;;;;;;;;10.50;6.50;;;;;10.04;62.13;100265.25;5061116;28;45247;-48
2021/12/09 11:40:18;;;;;;;;;8.50;6.50;;;;;10.14;62.20;100260.66;5060915;28;45355;-46
2021/12/09 11:45:13;;;;;;;;;10.50;7.75;;;;;10.22;61.83;100246.47;5060823;28;45509;-51
2021/12/09 11:47:40;;;;;;;;;7.50;7.50;;;;;10.24;61.72;100249.94;5060717;28;45367;-50
2021/12/09 11:50:12;;;;;;;;;8.50;6.50;;;;;10.32;61.86;100246.31;5076425;28;45236;-48
2021/12/09 11:52:38;;;;;;;;;9.50;8.50;;;;;10.37;61.62;100250.56;5059662;28;45379;-49
2021/12/09 11:55:06;;;;;;;;;8.00;6.75;;;;;10.41;61.74;100248.75;5060576;28;45478;-52